Darstellungsparameter: Aktuell verwendete Einstellungen:
Skalierung der Graphiken ... ?
xyx+y,   Skalierungsfaktor:      Skalierung: Modus: x, Faktor: 1
Darstellungszeitraum ... ?
Vom - - bis: - -   Zeitraum: 16.08.2018 - 15.02.2019
Min/Max/Avg-Anzeige ... ?
Zeige MMA aktuell
Zeige MMA Monat
Zeige MMA alles
Zeige --A aktuell
Zeige --A Monat
Zeige --A alles
Keine MMA-Anzeige
MMA:
Minimum Maximum Average (ber die Originaldaten)
MMA-Basis: 16.08.2018 - 15.02.2019
Quicknavigation für Darstellung... ?
Tage:      1T, 2T, 3T, 5T -1T -2T -3T -5T +1T +2T +3T +5T
Wochen: 1W, 2W, 3W -1W -2W -3W +1W +2W +3W
Monate: 1M, 3M, 6M -1M -3M -6M +1M +3M +6M
Jahre:    1J, 3J, 5J, 10J -1J -3J -5J -10J +1J +3J +5J +10J
Nutze für die Darstellung ... ?
Originaldaten oder ...
Mittelwerte Minima Maxima auf...
Stundenbasis Tagesbasis Wochenbasis
Monatsbasis Jahresbasis      Datenbasis: Mittelwerte auf Tagesbasis
Darstellen als:
Statistik (Auto) Statistik J:M      Darstellung:
Zur Graphik,    zurück zur Übersicht aller Sensoren.
 
Tabellarische Datenbersicht: ?
 
Sensor: Nr:Datum:Temp:Feuchte:Taupunkt:
Aussen-T/F 1 16-08-2018 00:00:00 20.74444 C 71.2743 % 15.36 C
2 17-08-2018 00:00:00 19.75903 C 76.6632 % 15.54 C
3 18-08-2018 00:00:00 18.88785 C 68.7326 % 13.02 C
4 19-08-2018 00:00:00 20.30521 C 67.4132 % 14.07 C
5 20-08-2018 00:00:00 20.84444 C 73.5938 % 15.95 C
6 21-08-2018 00:00:00 21.96979 C 70.6528 % 16.39 C
7 22-08-2018 00:00:00 23.24757 C 65.7500 % 16.48 C
8 23-08-2018 00:00:00 22.88681 C 69.0660 % 16.91 C
9 24-08-2018 00:00:00 19.03368 C 65.5556 % 12.44 C
10 25-08-2018 00:00:00 14.525 C 69.8438 % 9.09 C
11 26-08-2018 00:00:00 13.80556 C 67.7882 % 7.96 C
12 27-08-2018 00:00:00 18.12604 C 70.1493 % 12.6 C
13 28-08-2018 00:00:00 18.12917 C 67.6632 % 12.06 C
14 29-08-2018 00:00:00 17.15556 C 80.1528 % 13.71 C
15 30-08-2018 00:00:00 17.22778 C 75.0799 % 12.78 C
16 31-08-2018 00:00:00 15.05521 C 72.2951 % 10.11 C
17 01-09-2018 00:00:00 14.30833 C 69.0799 % 8.72 C
18 02-09-2018 00:00:00 14.27188 C 76.5347 % 10.21 C
19 03-09-2018 00:00:00 18.05417 C 80.5556 % 14.66 C
20 04-09-2018 00:00:00 20.01736 C 79.3507 % 16.33 C
21 05-09-2018 00:00:00 20.91701 C 73.3229 % 15.97 C
22 06-09-2018 00:00:00 18.07014 C 87.7049 % 16 C
23 07-09-2018 00:00:00 15.72639 C 86.9479 % 13.56 C
24 08-09-2018 00:00:00 13.53889 C 76.5139 % 9.49 C
25 09-09-2018 00:00:00 16.94236 C 70.6667 % 11.58 C
Sensor: Nr:Datum:Temp:Feuchte:Taupunkt:
Aussen-T/F 26 10-09-2018 00:00:00 17.5 C 71.7396 % 12.34 C
27 11-09-2018 00:00:00 18.85868 C 70.4028 % 13.36 C
28 12-09-2018 00:00:00 19.08646 C 71.2882 % 13.77 C
29 13-09-2018 00:00:00 16.3625 C 85.6632 % 13.96 C
30 14-09-2018 00:00:00 16.95174 C 71.3056 % 11.73 C
31 15-09-2018 00:00:00 15.14028 C 70.3368 % 9.78 C
32 16-09-2018 00:00:00 14.7184 C 71.4063 % 9.6 C
33 17-09-2018 00:00:00 16.79306 C 68.7813 % 11.03 C
34 18-09-2018 00:00:00 19.05208 C 70.2292 % 13.51 C
35 19-09-2018 00:00:00 20.67951 C 71.7535 % 15.4 C
36 20-09-2018 00:00:00 19.17153 C 72.3785 % 14.09 C
37 21-09-2018 00:00:00 15.93472 C 78.7778 % 12.26 C
38 22-09-2018 00:00:00 12.7566 C 77.2465 % 8.88 C
39 23-09-2018 00:00:00 12.33056 C 94.4167 % 11.46 C
40 24-09-2018 00:00:00 9.92396 C 85.7674 % 7.66 C
41 25-09-2018 00:00:00 8.38785 C 85.7431 % 6.14 C
42 26-09-2018 00:00:00 8.82917 C 82.7153 % 6.06 C
43 27-09-2018 00:00:00 11.32708 C 83.9236 % 8.71 C
44 28-09-2018 00:00:00 10.18526 C 91.0982 % 8.8 C
45 29-09-2018 00:00:00 8.2941 C 81.8056 % 5.37 C
46 30-09-2018 00:00:00 7.9427 C 82.6726 % 5.18 C
47 01-10-2018 00:00:00 9.71701 C 81.2778 % 6.67 C
48 02-10-2018 00:00:00 9.17604 C 87.5625 % 7.22 C
49 03-10-2018 00:00:00 12.2809 C 82.0521 % 9.31 C
50 04-10-2018 00:00:00 9.78056 C 87.1875 % 7.75 C
Sensor: Nr:Datum:Temp:Feuchte:Taupunkt:
Aussen-T/F 51 05-10-2018 00:00:00 10.63021 C 88.2743 % 8.77 C
52 06-10-2018 00:00:00 12.7691 C 89.0000 % 11 C
53 07-10-2018 00:00:00 13.00243 C 89.0833 % 11.25 C
54 08-10-2018 00:00:00 10.50347 C 88.5521 % 8.69 C
55 09-10-2018 00:00:00 11.75035 C 91.4340 % 10.4 C
56 10-10-2018 00:00:00 13.21285 C 90.3646 % 11.67 C
57 11-10-2018 00:00:00 14.21701 C 88.2674 % 12.31 C
58 12-10-2018 00:00:00 15.87882 C 86.2604 % 13.59 C
59 13-10-2018 00:00:00 15.57986 C 84.2257 % 12.93 C
60 14-10-2018 00:00:00 14.79965 C 83.0174 % 11.95 C
61 15-10-2018 00:00:00 13.825 C 84.5903 % 11.28 C
62 16-10-2018 00:00:00 12.87292 C 86.4653 % 10.67 C
63 17-10-2018 00:00:00 12.82847 C 88.3368 % 10.95 C
64 18-10-2018 00:00:00 14.04618 C 88.4722 % 12.17 C
65 19-10-2018 00:00:00 12.08785 C 87.8889 % 10.14 C
66 20-10-2018 00:00:00 11.03542 C 86.2431 % 8.83 C
67 21-10-2018 00:00:00 7.3066 C 91.4479 % 6.01 C
68 22-10-2018 00:00:00 7.67014 C 90.5417 % 6.22 C
69 23-10-2018 00:00:00 9.04306 C 84.6944 % 6.61 C
70 24-10-2018 00:00:00 14.07604 C 86.3472 % 11.83 C
71 25-10-2018 00:00:00 12.94722 C 83.3368 % 10.19 C
72 26-10-2018 00:00:00 10.21354 C 80.8299 % 7.07 C
73 27-10-2018 00:00:00 6.27118 C 90.9340 % 4.9 C
74 28-10-2018 00:00:00 5.67778 C 83.1424 % 3.05 C
75 29-10-2018 00:00:00 6.43264 C 84.8160 % 4.07 C
Sensor: Nr:Datum:Temp:Feuchte:Taupunkt:
Aussen-T/F 76 30-10-2018 00:00:00 6.2809 C 91.5868 % 5.02 C
77 31-10-2018 00:00:00 7.45382 C 86.8194 % 5.41 C
78 01-11-2018 00:00:00 6.13194 C 95.0799 % 5.4 C
79 02-11-2018 00:00:00 8.86597 C 94.0486 % 7.96 C
80 03-11-2018 00:00:00 3.50521 C 96.4549 % 3 C
81 04-11-2018 00:00:00 6.86007 C 95.2361 % 6.15 C
82 05-11-2018 00:00:00 10.39097 C 92.1042 % 9.17 C
83 06-11-2018 00:00:00 8.41806 C 95.6667 % 7.77 C
84 07-11-2018 00:00:00 9.32118 C 92.4167 % 8.16 C
85 08-11-2018 00:00:00 10.425 C 89.0660 % 8.7 C
86 09-11-2018 00:00:00 9.62604 C 92.9861 % 8.55 C
87 10-11-2018 00:00:00 11.90347 C 90.1250 % 10.34 C
88 11-11-2018 00:00:00 12.04618 C 90.5972 % 10.56 C
89 12-11-2018 00:00:00 13.70069 C 90.0278 % 12.1 C
90 13-11-2018 00:00:00 10.46076 C 92.4965 % 9.3 C
91 14-11-2018 00:00:00 6.18264 C 96.5938 % 5.68 C
92 15-11-2018 00:00:00 6.9816 C 91.5660 % 5.71 C
93 16-11-2018 00:00:00 5.92778 C 89.7882 % 4.38 C
94 17-11-2018 00:00:00 2.75417 C 88.6667 % 1.07 C
95 18-11-2018 00:00:00 1.8566 C 79.8333 % -1.25 C
96 19-11-2018 00:00:00 3.57014 C 81.2153 % 0.66 C
97 20-11-2018 00:00:00 3.50972 C 80.1910 % 0.43 C
98 21-11-2018 00:00:00 2.50312 C 88.6979 % 0.83 C
99 22-11-2018 00:00:00 2.91458 C 88.0903 % 1.14 C
100 23-11-2018 00:00:00 0.10868 C 95.3785 % -0.54 C
Sensor: Nr:Datum:Temp:Feuchte:Taupunkt:
Aussen-T/F 101 24-11-2018 00:00:00 4.74792 C 96.2674 % 4.21 C
102 25-11-2018 00:00:00 5.98785 C 95.8785 % 5.38 C
103 26-11-2018 00:00:00 6.65625 C 87.8958 % 4.8 C
104 27-11-2018 00:00:00 4.12465 C 83.8368 % 1.64 C
105 28-11-2018 00:00:00 3.7 C 91.6667 % 2.47 C
106 29-11-2018 00:00:00 5.67875 C 92.7735 % 4.6 C
107 30-11-2018 00:00:00 7.44514 C 94.6875 % 6.65 C
108 01-12-2018 00:00:00 7.48993 C 91.5833 % 6.21 C
109 02-12-2018 00:00:00 11.28056 C 93.0868 % 10.21 C
110 03-12-2018 00:00:00 11.76701 C 95.7708 % 11.11 C
111 04-12-2018 00:00:00 6.48715 C 90.9653 % 5.12 C
112 05-12-2018 00:00:00 3.60729 C 96.1806 % 3.06 C
113 06-12-2018 00:00:00 9.76042 C 93.8924 % 8.83 C
114 07-12-2018 00:00:00 11.22882 C 86.6667 % 9.09 C
115 08-12-2018 00:00:00 7.97361 C 88.5035 % 6.19 C
116 09-12-2018 00:00:00 8.02544 C 87.9756 % 6.16 C
117 10-12-2018 00:00:00 4.96771 C 91.2639 % 3.67 C
118 11-12-2018 00:00:00 3.84375 C 93.7118 % 2.93 C
119 12-12-2018 00:00:00 2.70801 C 95.4948 % 2.06 C
120 13-12-2018 00:00:00 1.36181 C 87.4618 % -0.49 C
121 14-12-2018 00:00:00 1.15521 C 77.4757 % -2.33 C
122 15-12-2018 00:00:00 0.62683 C 78.6202 % -2.65 C
123 16-12-2018 00:00:00 0.77743 C 90.5382 % -0.59 C
124 17-12-2018 00:00:00 4.19722 C 94.8194 % 3.44 C
125 18-12-2018 00:00:00 5.08229 C 90.2917 % 3.63 C
Sensor: Nr:Datum:Temp:Feuchte:Taupunkt:
Aussen-T/F 126 19-12-2018 00:00:00 6.54495 C 88.8537 % 4.84 C
127 20-12-2018 00:00:00 7.58741 C 89.6818 % 6 C
128 21-12-2018 00:00:00 10.78507 C 86.4514 % 8.62 C
129 22-12-2018 00:00:00 9.94266 C 85.9091 % 7.7 C
130 23-12-2018 00:00:00 8.60868 C 93.6563 % 7.65 C
131 24-12-2018 00:00:00 4.88924 C 90.8750 % 3.53 C
132 25-12-2018 00:00:00 1.85208 C 93.1667 % 0.87 C
133 26-12-2018 00:00:00 -0.91736 C 95.5035 % -1.54 C
134 27-12-2018 00:00:00 0.08125 C 95.8090 % -0.51 C
135 28-12-2018 00:00:00 0.225 C 94.9375 % -0.49 C
136 29-12-2018 00:00:00 2.70972 C 93.3576 % 1.75 C
137 30-12-2018 00:00:00 7.50313 C 87.4271 % 5.55 C
138 31-12-2018 00:00:00 7.59271 C 96.4201 % 7.06 C
139 01-01-2019 00:00:00 7.09271 C 92.0833 % 5.9 C
140 02-01-2019 00:00:00 3.70104 C 82.7847 % 1.05 C
141 03-01-2019 00:00:00 2.03715 C 93.0000 % 1.03 C
142 04-01-2019 00:00:00 3.13785 C 91.9826 % 1.96 C
143 05-01-2019 00:00:00 5.92632 C 93.3825 % 4.94 C
144 06-01-2019 00:00:00 5.76944 C 91.7674 % 4.54 C
145 07-01-2019 00:00:00 5.50417 C 89.8819 % 3.98 C
146 08-01-2019 00:00:00 6.62222 C 85.9688 % 4.45 C
147 09-01-2019 00:00:00 3.90486 C 83.8368 % 1.43 C
148 10-01-2019 00:00:00 2.05694 C 83.7708 % -0.39 C
149 11-01-2019 00:00:00 2.82847 C 94.7882 % 2.08 C
150 12-01-2019 00:00:00 5.96702 C 92.9734 % 4.92 C
Sensor: Nr:Datum:Temp:Feuchte:Taupunkt:
Aussen-T/F 151 13-01-2019 00:00:00 7.73715 C 94.1493 % 6.86 C
152 14-01-2019 00:00:00 5.07083 C 89.5625 % 3.5 C
153 15-01-2019 00:00:00 4.78854 C 89.1007 % 3.15 C
154 16-01-2019 00:00:00 5.27187 C 85.4861 % 3.04 C
155 17-01-2019 00:00:00 5.0066 C 87.3924 % 3.09 C
156 18-01-2019 00:00:00 0.77569 C 91.8611 % -0.39 C
157 19-01-2019 00:00:00 -2.72396 C 93.3299 % -3.65 C
158 20-01-2019 00:00:00 -4.97187 C 92.8854 % -5.94 C
159 21-01-2019 00:00:00 -6.20972 C 93.8472 % -7.04 C
160 22-01-2019 00:00:00 -4.96667 C 92.0938 % -6.05 C
161 23-01-2019 00:00:00 -1.57743 C 89.4028 % -3.09 C
162 24-01-2019 00:00:00 -1.91736 C 83.8854 % -4.27 C
163 25-01-2019 00:00:00 0.28403 C 88.1354 % -1.44 C
164 26-01-2019 00:00:00 4.48229 C 92.3229 % 3.35 C
165 27-01-2019 00:00:00 5.94583 C 90.0868 % 4.45 C
166 28-01-2019 00:00:00 3.17118 C 90.8854 % 1.83 C
167 29-01-2019 00:00:00 1.73021 C 89.6875 % 0.22 C
168 30-01-2019 00:00:00 0.45972 C 93.3264 % -0.49 C
169 31-01-2019 00:00:00 -0.09826 C 94.7188 % -0.84 C
170 01-02-2019 00:00:00 1.74826 C 95.6389 % 1.13 C
171 02-02-2019 00:00:00 2.46701 C 96.8611 % 2.02 C
172 03-02-2019 00:00:00 2.7 C 88.6910 % 1.02 C
173 04-02-2019 00:00:00 1.83229 C 87.0625 % -0.09 C
174 05-02-2019 00:00:00 4.34375 C 81.1771 % 1.41 C
175 06-02-2019 00:00:00 1.17639 C 89.9688 % -0.28 C
Sensor: Nr:Datum:Temp:Feuchte:Taupunkt:
Aussen-T/F 176 07-02-2019 00:00:00 5.09549 C 88.0833 % 3.29 C
177 08-02-2019 00:00:00 7.42604 C 83.5417 % 4.83 C
178 09-02-2019 00:00:00 8.6309 C 79.8056 % 5.35 C
179 10-02-2019 00:00:00 7.96076 C 88.4965 % 6.18 C
180 11-02-2019 00:00:00 4.86736 C 86.4931 % 2.81 C
181 12-02-2019 00:00:00 3.71597 C 86.6563 % 1.7 C
182 13-02-2019 00:00:00 1.77951 C 91.5833 % 0.56 C
183 14-02-2019 00:00:00 0.77431 C 92.7674 % -0.26 C
184 15-02-2019 00:00:00 2.33854 C 89.2917 % 0.76 C

Maximal/Minimal-Werte vom 16.08.2018 - 15.02.2019

Sensor Min Max Avg
Temp
(Aussen-T/F)
-8.8 °C
22-01-2019  06:35:00
34.4 °C
22-08-2018  17:15:00
8.68 °C
Feuchte
(Aussen-T/F)
31 %
22-08-2018  17:20:00
98 %
23-09-2018  14:00:00
86.05 %
Taupunkt
(Aussen-T/F)
-7.04 C
21-01-2019  00:00:00
16.91 C
23-08-2018  00:00:00
6.34 C

Die Daten stammen von einer Davis Vantage Pro 2 Wetter-Station und werden unter Linux mit der Software wview2wettercgi und aufbereitet. Alle Angaben erfolgen ohne Gewähr für ihre Vollständigkeit oder Richtigkeit.
Kontakt: Rainer Krienke krienke@uni-koblenz.de . Meine Webseiten an der Uni Koblenz oder privat.
Version: $Revision: 0.78 $